createdAt,value
2022-11-28T00:02:12.487Z,8.00
2022-11-28T00:07:15.507Z,8.00
2022-11-28T00:12:18.425Z,8.00
2022-11-28T00:17:22.713Z,7.90
2022-11-28T00:22:27.970Z,7.70
2022-11-28T00:27:30.832Z,7.70
2022-11-28T00:32:35.685Z,7.50
2022-11-28T00:37:38.569Z,7.60
2022-11-28T00:42:41.453Z,7.80
2022-11-28T00:47:46.876Z,8.00
2022-11-28T00:52:50.288Z,7.90
2022-11-28T00:57:55.143Z,7.70
2022-11-28T01:02:59.610Z,7.60
2022-11-28T01:08:02.471Z,7.70
2022-11-28T01:13:05.340Z,7.90
2022-11-28T01:18:35.576Z,7.90
2022-11-28T01:23:38.898Z,8.10
2022-11-28T01:28:41.804Z,8.10
2022-11-28T01:33:46.135Z,8.10
2022-11-28T01:43:30.135Z,8.00
2022-11-28T01:48:37.671Z,8.10
2022-11-28T01:53:45.229Z,8.00
2022-11-28T01:58:55.960Z,7.90
2022-11-28T02:04:00.240Z,7.70
2022-11-28T02:09:03.150Z,7.80
2022-11-28T02:14:18.274Z,7.40
2022-11-28T02:19:53.984Z,7.60
2022-11-28T02:25:08.863Z,7.60
2022-11-28T02:30:20.693Z,7.50
2022-11-28T02:35:30.104Z,7.70
2022-11-28T02:40:39.234Z,7.60
2022-11-28T02:45:47.777Z,7.50
2022-11-28T02:51:00.090Z,7.70
2022-11-28T02:56:04.285Z,7.60
2022-11-28T03:01:13.519Z,7.70
2022-11-28T03:06:30.030Z,7.60
2022-11-28T03:11:46.640Z,7.20
2022-11-28T03:16:54.541Z,7.50
2022-11-28T03:22:08.380Z,7.50
2022-11-28T03:27:20.048Z,7.50
2022-11-28T03:32:25.646Z,7.30
2022-11-28T03:37:33.707Z,7.30
2022-11-28T03:42:41.006Z,7.60
2022-11-28T03:48:03.446Z,7.70
2022-11-28T03:53:13.725Z,7.70
2022-11-28T03:58:24.215Z,7.70
2022-11-28T04:03:36.895Z,7.60
2022-11-28T04:08:44.635Z,7.60
2022-11-28T04:13:54.195Z,7.40
2022-11-28T04:19:02.573Z,7.30
2022-11-28T04:24:11.485Z,7.50
2022-11-28T04:29:18.750Z,7.50
2022-11-28T04:34:23.964Z,7.50
2022-11-28T04:39:30.083Z,7.60
2022-11-28T04:44:37.566Z,7.30
2022-11-28T04:49:41.092Z,7.30
2022-11-28T04:54:54.030Z,7.60
2022-11-28T04:59:57.835Z,7.80
2022-11-28T05:05:01.354Z,7.70
2022-11-28T05:10:06.462Z,7.70
2022-11-28T05:15:10.698Z,7.60
2022-11-28T05:20:20.673Z,7.70
2022-11-28T05:25:25.143Z,7.70
2022-11-28T05:30:28.049Z,7.60
2022-11-28T05:35:31.009Z,7.80
2022-11-28T05:40:35.238Z,7.60
2022-11-28T05:45:40.811Z,7.60
2022-11-28T05:50:44.087Z,7.20
2022-11-28T05:55:49.032Z,7.40
2022-11-28T06:00:55.003Z,7.50
2022-11-28T06:05:58.027Z,7.60
2022-11-28T06:11:02.355Z,7.60
2022-11-28T06:16:09.026Z,7.70
2022-11-28T06:21:14.198Z,7.60
2022-11-28T06:26:20.750Z,7.70
2022-11-28T06:31:25.250Z,7.70
2022-11-28T06:36:30.565Z,7.60
2022-11-28T06:41:35.001Z,7.70
2022-11-28T06:46:38.011Z,7.90
2022-11-28T06:51:41.885Z,7.60
2022-11-28T06:56:46.161Z,6.80
2022-11-28T07:01:49.310Z,6.80
2022-11-28T07:06:52.223Z,6.50
2022-11-28T07:11:56.507Z,6.40
2022-11-28T07:16:59.478Z,6.80
2022-11-28T07:22:02.438Z,6.80
2022-11-28T07:27:06.758Z,6.70
2022-11-28T07:32:09.800Z,7.10
2022-11-28T07:37:13.097Z,7.30
2022-11-28T07:42:17.378Z,7.50
2022-11-28T07:47:31.704Z,7.50
2022-11-28T07:52:34.935Z,7.60
2022-11-28T07:57:39.265Z,7.40
2022-11-28T08:02:42.250Z,7.60
2022-11-28T08:07:45.213Z,7.70
2022-11-28T08:12:49.570Z,7.60
2022-11-28T08:17:52.449Z,7.50
2022-11-28T08:22:55.376Z,7.40
2022-11-28T08:27:59.676Z,7.60
2022-11-28T08:33:02.584Z,7.60
2022-11-28T08:38:05.460Z,7.70
2022-11-28T08:43:09.698Z,7.80
2022-11-28T08:48:12.575Z,7.80
2022-11-28T08:53:18.639Z,7.90
2022-11-28T08:58:23.009Z,7.90
2022-11-28T09:03:26.064Z,7.90
2022-11-28T09:08:29.070Z,8.00
2022-11-28T09:13:33.337Z,8.10
2022-11-28T09:18:36.376Z,8.10
2022-11-28T09:23:45.546Z,8.10
2022-11-28T09:28:50.015Z,8.20
2022-11-28T09:33:52.938Z,8.20
2022-11-28T09:38:55.944Z,8.40
2022-11-28T09:44:04.291Z,8.50
2022-11-28T09:49:26.336Z,8.50
2022-11-28T09:54:39.567Z,8.60
2022-11-28T09:59:44.266Z,8.80
2022-11-28T10:04:52.932Z,8.80
2022-11-28T10:10:02.934Z,8.90
2022-11-28T10:15:19.441Z,8.90
2022-11-28T10:20:24.546Z,8.90
2022-11-28T10:25:30.654Z,8.90
2022-11-28T10:30:40.883Z,8.90
2022-11-28T10:35:48.526Z,9.10
2022-11-28T10:40:57.033Z,9.10
2022-11-28T10:46:20.284Z,9.30
2022-11-28T10:51:32.251Z,9.40
2022-11-28T10:56:41.954Z,9.40
2022-11-28T11:01:50.142Z,9.40
2022-11-28T11:07:10.179Z,9.50
2022-11-28T11:12:22.571Z,9.60
2022-11-28T11:17:36.258Z,9.70
2022-11-28T11:22:39.606Z,9.70
2022-11-28T11:27:49.862Z,9.80
2022-11-28T11:32:54.821Z,9.80
2022-11-28T11:38:18.344Z,9.80
2022-11-28T11:43:29.090Z,9.90
2022-11-28T11:48:38.366Z,10.00
2022-11-28T11:53:41.321Z,10.20
2022-11-28T11:58:47.720Z,10.20
2022-11-28T12:04:05.598Z,10.20
2022-11-28T12:09:21.790Z,10.30
2022-11-28T12:14:29.846Z,10.20
2022-11-28T12:19:40.643Z,10.30
2022-11-28T12:24:51.546Z,10.20
2022-11-28T12:30:06.037Z,10.20
2022-11-28T12:35:24.185Z,10.20
2022-11-28T12:40:36.687Z,10.40
2022-11-28T12:45:47.281Z,10.40
2022-11-28T12:50:58.742Z,10.40
2022-11-28T12:56:12.263Z,10.50
2022-11-28T13:01:30.693Z,10.50
2022-11-28T13:06:46.850Z,10.60
2022-11-28T13:12:01.387Z,10.40
2022-11-28T13:17:18.642Z,10.50
2022-11-28T13:22:25.703Z,10.40
2022-11-28T13:27:38.521Z,10.50
2022-11-28T13:32:46.475Z,10.50
2022-11-28T13:43:26.241Z,10.70
2022-11-28T13:54:46.154Z,10.90
2022-11-28T13:59:55.611Z,10.80
2022-11-28T14:04:58.686Z,10.90
2022-11-28T14:10:31.843Z,11.00
2022-11-28T14:15:44.130Z,11.00
2022-11-28T14:20:53.440Z,11.00
2022-11-28T14:25:59.539Z,11.10
2022-11-28T14:31:13.980Z,11.00
2022-11-28T14:36:26.459Z,11.00
2022-11-28T14:41:30.902Z,11.00
2022-11-28T14:46:34.726Z,11.00
2022-11-28T14:52:38.002Z,11.00
2022-11-28T14:57:52.519Z,10.90
2022-11-28T15:03:20.927Z,10.90
2022-11-28T15:08:39.902Z,10.90
2022-11-28T15:14:09.949Z,10.80
2022-11-28T15:19:21.610Z,10.90
2022-11-28T15:24:27.294Z,10.90
2022-11-28T15:29:31.659Z,10.90
2022-11-28T15:34:38.918Z,10.90
2022-11-28T15:39:43.418Z,10.90
2022-11-28T15:44:48.297Z,10.90
2022-11-28T15:50:00.730Z,11.00
2022-11-28T15:55:16.564Z,11.00
2022-11-28T16:00:21.970Z,11.10
2022-11-28T16:05:25.799Z,11.30
2022-11-28T16:10:33.718Z,11.50
2022-11-28T16:15:39.091Z,11.40
2022-11-28T16:20:43.255Z,11.30
2022-11-28T16:25:59.922Z,11.30
2022-11-28T16:31:11.679Z,11.20
2022-11-28T16:36:23.005Z,11.20
2022-11-28T16:41:27.229Z,11.10
2022-11-28T16:46:34.761Z,11.00
2022-11-28T16:51:39.839Z,11.10
2022-11-28T16:56:45.635Z,11.10
2022-11-28T17:01:53.793Z,11.20
2022-11-28T17:06:58.503Z,11.20
2022-11-28T17:12:05.410Z,11.10
2022-11-28T17:17:14.098Z,11.20
2022-11-28T17:22:19.322Z,11.30
2022-11-28T17:27:22.221Z,11.30
2022-11-28T17:32:26.570Z,11.20
2022-11-28T17:37:29.492Z,11.20
2022-11-28T17:42:32.720Z,11.20
2022-11-28T17:47:37.044Z,11.20
2022-11-28T17:52:40.103Z,11.20
2022-11-28T17:57:43.316Z,11.20
2022-11-28T18:02:47.796Z,11.20
2022-11-28T18:07:50.781Z,11.20
2022-11-28T18:12:55.264Z,11.20
2022-11-28T18:18:02.462Z,11.30
2022-11-28T18:23:05.507Z,11.30
2022-11-28T18:28:08.591Z,11.30
2022-11-28T18:33:13.622Z,11.30
2022-11-28T18:38:16.531Z,11.30
2022-11-28T18:43:19.403Z,11.30
2022-11-28T18:48:23.695Z,11.30
2022-11-28T18:53:26.629Z,11.30
2022-11-28T18:58:29.569Z,11.30
2022-11-28T19:03:34.553Z,11.40
2022-11-28T19:08:38.617Z,11.30
2022-11-28T19:13:42.626Z,11.40
2022-11-28T19:18:47.973Z,11.30
2022-11-28T19:23:51.410Z,11.30
2022-11-28T19:28:56.481Z,11.40
2022-11-28T19:34:02.935Z,11.40
2022-11-28T19:39:08.265Z,11.40
2022-11-28T19:44:11.714Z,11.30
2022-11-28T19:49:20.525Z,11.20
2022-11-28T19:54:24.854Z,11.30
2022-11-28T19:59:31.254Z,11.30
2022-11-28T20:04:36.126Z,11.20
2022-11-28T20:09:39.614Z,11.20
2022-11-28T20:14:42.531Z,11.20
2022-11-28T20:19:48.039Z,12.80
2022-11-28T20:24:51.908Z,11.90
2022-11-28T20:29:54.981Z,11.60
2022-11-28T20:35:01.160Z,11.50
2022-11-28T20:40:04.393Z,11.30
2022-11-28T20:45:08.291Z,11.30
2022-11-28T20:50:12.700Z,11.20
2022-11-28T20:55:15.745Z,11.30
2022-11-28T21:00:24.944Z,11.30
2022-11-28T21:05:30.996Z,11.30
2022-11-28T21:10:34.756Z,11.30
2022-11-28T21:15:40.606Z,11.20
2022-11-28T21:20:47.096Z,11.20
2022-11-28T21:25:50.020Z,11.30
2022-11-28T21:30:52.994Z,11.30
2022-11-28T21:36:00.127Z,11.30
2022-11-28T21:41:03.344Z,11.30
2022-11-28T21:46:08.104Z,11.30
2022-11-28T21:51:17.681Z,11.40
2022-11-28T21:56:21.889Z,11.30
2022-11-28T22:01:24.814Z,11.30
2022-11-28T22:06:30.243Z,11.20
2022-11-28T22:11:33.457Z,11.20
2022-11-28T22:16:36.355Z,11.20
2022-11-28T22:21:56.629Z,11.10
2022-11-28T22:27:00.407Z,11.10
2022-11-28T22:32:04.341Z,11.10
2022-11-28T22:37:09.882Z,11.10
2022-11-28T22:42:13.761Z,11.20
2022-11-28T22:47:16.694Z,11.20
2022-11-28T22:52:20.923Z,11.20
2022-11-28T22:57:25.024Z,11.20
2022-11-28T23:02:29.077Z,11.20
2022-11-28T23:07:33.639Z,11.20
2022-11-28T23:12:36.983Z,11.20
2022-11-28T23:17:41.016Z,11.00
2022-11-28T23:22:45.232Z,11.10
2022-11-28T23:27:48.617Z,11.10
2022-11-28T23:32:51.671Z,11.10
2022-11-28T23:37:55.935Z,11.10
2022-11-28T23:42:58.862Z,11.10
2022-11-28T23:48:01.775Z,11.10
2022-11-28T23:53:06.050Z,11.20
2022-11-28T23:58:08.939Z,11.20
